Time;durP1;ratioP1;P1;durP2;ratioP2;P2;SDS_P1;SDS_P2;PMS_P1;PMS_P2;Temp;Humidity;BMP_temperature;BMP_pressure;BME280_temperature;BME280_humidity;BME280_pressure;Samples;Min_cycle;Max_cycle;Signal;HPM_P1;HPM_P2
2022/10/29 00:00:49;;;;;;;8.02;4.53;;;12.70;99.90;;;;;;4972667;28;20034;-81
2022/10/29 00:03:15;;;;;;;10.63;5.25;;;12.70;99.90;;;;;;5004184;28;20026;-82
2022/10/29 00:05:40;;;;;;;6.53;5.30;;;12.70;99.90;;;;;;4975776;28;20498;-83
2022/10/29 00:08:06;;;;;;;8.73;5.28;;;12.70;99.90;;;;;;4992096;28;20030;-83
2022/10/29 00:10:32;;;;;;;13.30;5.10;;;12.60;99.90;;;;;;4987267;28;20037;-83
2022/10/29 00:13:02;;;;;;;10.52;4.47;;;12.60;99.90;;;;;;4987693;28;20096;-83
2022/10/29 00:15:28;;;;;;;8.52;4.65;;;12.70;99.90;;;;;;4990207;28;20168;-83
2022/10/29 00:17:54;;;;;;;6.55;4.85;;;12.70;99.90;;;;;;4956377;28;20110;-83
2022/10/29 00:20:20;;;;;;;6.10;4.60;;;12.70;99.90;;;;;;4972519;28;20042;-81
2022/10/29 00:22:46;;;;;;;7.35;4.85;;;12.70;99.90;;;;;;4988891;28;20023;-83
2022/10/29 00:25:12;;;;;;;8.10;4.75;;;12.70;99.90;;;;;;5004312;28;20027;-83
2022/10/29 00:27:38;;;;;;;9.80;4.65;;;12.70;99.90;;;;;;5024037;28;20030;-82
2022/10/29 00:30:04;;;;;;;7.30;4.68;;;12.60;99.90;;;;;;4975068;28;20119;-82
2022/10/29 00:32:30;;;;;;;7.28;4.80;;;12.50;99.90;;;;;;4952229;28;20039;-83
2022/10/29 00:34:56;;;;;;;9.27;4.57;;;12.50;99.90;;;;;;4987634;28;20053;-82
2022/10/29 00:37:21;;;;;;;6.13;4.90;;;12.50;99.90;;;;;;4993629;28;20455;-82
2022/10/29 00:39:47;;;;;;;7.80;4.70;;;12.40;99.90;;;;;;4987465;28;20113;-82
2022/10/29 00:42:14;;;;;;;7.55;4.65;;;12.40;99.90;;;;;;4987768;28;20041;-83
2022/10/29 00:44:41;;;;;;;8.05;4.85;;;12.40;99.90;;;;;;4987585;28;20034;-84
2022/10/29 00:47:18;;;;;;;8.00;4.82;;;12.30;99.90;;;;;;4973724;28;20042;-82
2022/10/29 00:49:50;;;;;;;8.73;6.57;;;12.20;99.90;;;;;;4972408;28;20065;-83
2022/10/29 00:52:19;;;;;;;9.23;4.75;;;12.20;99.90;;;;;;4986356;28;20038;-83
2022/10/29 00:54:46;;;;;;;8.85;5.15;;;12.20;99.90;;;;;;4983284;28;20105;-82
2022/10/29 00:57:18;;;;;;;8.02;5.32;;;12.20;99.90;;;;;;4991005;28;20073;-82
2022/10/29 00:59:47;;;;;;;7.50;4.57;;;12.10;99.90;;;;;;4990932;28;20034;-82
2022/10/29 01:02:14;;;;;;;7.22;4.78;;;12.10;99.90;;;;;;4995308;28;20114;-82
2022/10/29 01:04:41;;;;;;;7.50;5.18;;;12.10;99.90;;;;;;5002639;28;20483;-82
2022/10/29 01:07:07;;;;;;;7.53;4.70;;;12.10;99.90;;;;;;4989046;28;20630;-83
2022/10/29 01:09:33;;;;;;;5.32;4.78;;;12.00;99.90;;;;;;4977348;28;20125;-82
2022/10/29 01:12:09;;;;;;;10.98;4.88;;;12.00;99.90;;;;;;4964312;28;20026;-83
2022/10/29 01:15:06;;;;;;;6.35;4.70;;;12.00;99.90;;;;;;4987361;28;20045;-82
2022/10/29 01:17:59;;;;;;;11.07;4.72;;;12.00;99.90;;;;;;5008615;28;20042;-83
2022/10/29 01:20:39;;;;;;;7.47;5.80;;;11.90;99.90;;;;;;4989448;28;20038;-82
2022/10/29 01:23:20;;;;;;;6.20;5.15;;;11.80;99.90;;;;;;5006744;28;20713;-83
2022/10/29 01:26:06;;;;;;;9.40;5.32;;;11.80;99.90;;;;;;4995069;28;20105;-83
2022/10/29 01:29:12;;;;;;;7.45;5.65;;;11.80;99.90;;;;;;5009144;28;20476;-82
2022/10/29 01:31:50;;;;;;;8.50;5.50;;;11.80;99.90;;;;;;4990856;28;20123;-83
2022/10/29 01:34:22;;;;;;;7.15;4.95;;;11.70;99.90;;;;;;5006047;28;20092;-83
2022/10/29 01:37:01;;;;;;;9.32;5.18;;;11.70;99.90;;;;;;4975058;28;20037;-82
2022/10/29 01:39:32;;;;;;;9.50;4.85;;;11.70;99.90;;;;;;4974424;28;20098;-82
2022/10/29 01:42:05;;;;;;;9.07;5.35;;;11.70;99.90;;;;;;5005514;28;20119;-82
2022/10/29 01:45:01;;;;;;;7.22;5.10;;;11.70;99.90;;;;;;4990088;28;20022;-83
2022/10/29 01:47:35;;;;;;;6.97;5.20;;;11.70;99.90;;;;;;4980617;28;20080;-83
2022/10/29 01:50:06;;;;;;;8.25;5.55;;;11.60;99.90;;;;;;4969498;28;20029;-83
2022/10/29 01:52:34;;;;;;;8.52;5.03;;;11.60;99.90;;;;;;4963327;28;20061;-83
2022/10/29 01:55:00;;;;;;;7.50;4.68;;;11.60;99.90;;;;;;4974735;28;20041;-83
2022/10/29 01:57:32;;;;;;;15.18;5.47;;;11.60;99.90;;;;;;5008916;28;20034;-81
2022/10/29 02:00:11;;;;;;;9.63;4.93;;;11.50;99.90;;;;;;5009997;28;20073;-83
2022/10/29 02:02:45;;;;;;;9.77;5.40;;;11.50;99.90;;;;;;4986373;28;20345;-83
2022/10/29 02:05:11;;;;;;;8.85;5.00;;;11.40;99.90;;;;;;4991052;28;20479;-84
2022/10/29 02:08:20;;;;;;;6.53;4.85;;;11.40;99.90;;;;;;5008810;28;20056;-83
2022/10/29 02:11:10;;;;;;;11.18;4.63;;;11.40;99.90;;;;;;4931268;29;20038;-83
2022/10/29 02:13:43;;;;;;;8.07;5.38;;;11.40;99.90;;;;;;4992423;28;20038;-83
2022/10/29 02:16:10;;;;;;;9.55;4.45;;;11.40;99.90;;;;;;4966665;28;20483;-83
2022/10/29 02:18:45;;;;;;;8.13;4.60;;;11.40;99.90;;;;;;4974202;28;20042;-83
2022/10/29 02:21:18;;;;;;;;;;;11.40;99.90;;;;;;4982699;28;20065;-83
2022/10/29 02:23:44;;;;;;;4.90;4.28;;;11.30;99.90;;;;;;4980808;28;20451;-83
2022/10/29 02:26:11;;;;;;;7.93;4.60;;;11.30;99.90;;;;;;4997890;28;20487;-82
2022/10/29 02:28:37;;;;;;;5.32;4.05;;;11.30;99.90;;;;;;4990457;28;20030;-82
2022/10/29 02:31:03;;;;;;;7.05;4.82;;;11.30;99.90;;;;;;4993556;28;20400;-83
2022/10/29 02:33:29;;;;;;;7.63;4.97;;;11.30;99.90;;;;;;4989644;28;20042;-82
2022/10/29 02:35:55;;;;;;;9.65;4.93;;;11.30;99.90;;;;;;4976765;28;20035;-83
2022/10/29 02:38:20;;;;;;;6.43;4.85;;;11.20;99.90;;;;;;4954782;28;20093;-83
2022/10/29 02:40:46;;;;;;;5.00;4.47;;;11.20;99.90;;;;;;5004950;28;20030;-83
2022/10/29 02:43:12;;;;;;;7.57;4.50;;;11.20;99.90;;;;;;4940922;28;20139;-82
2022/10/29 02:45:38;;;;;;;6.28;4.65;;;11.10;99.90;;;;;;5006212;28;20061;-84
2022/10/29 02:48:04;;;;;;;5.05;4.35;;;11.10;99.90;;;;;;4989480;28;20173;-82
2022/10/29 02:50:30;;;;;;;6.75;4.43;;;11.20;99.90;;;;;;4993414;28;20372;-83
2022/10/29 02:52:56;;;;;;;7.18;5.10;;;11.10;99.90;;;;;;4963739;28;20053;-82
2022/10/29 02:55:21;;;;;;;7.43;4.90;;;11.10;99.90;;;;;;4957858;28;20035;-84
2022/10/29 02:57:47;;;;;;;8.07;5.65;;;11.10;99.90;;;;;;5005695;28;20042;-83
2022/10/29 03:00:13;;;;;;;10.30;5.57;;;11.00;99.90;;;;;;4973236;28;20112;-83
2022/10/29 03:02:39;;;;;;;7.72;5.70;;;11.00;99.90;;;;;;4969028;28;20109;-83
2022/10/29 03:05:06;;;;;;;11.05;5.75;;;11.00;99.90;;;;;;4969760;28;20035;-83
2022/10/29 03:07:36;;;;;;;7.78;4.90;;;11.00;99.90;;;;;;4986840;28;20158;-83
2022/10/29 03:10:07;;;;;;;12.23;5.65;;;11.10;99.90;;;;;;4972534;28;20034;-83
2022/10/29 03:12:33;;;;;;;7.10;5.82;;;11.10;99.90;;;;;;4992268;28;20053;-83
2022/10/29 03:14:59;;;;;;;11.35;5.88;;;11.10;99.90;;;;;;4987384;28;21066;-84
2022/10/29 03:17:25;;;;;;;7.70;5.93;;;11.10;99.90;;;;;;4972862;28;20042;-83
2022/10/29 03:19:51;;;;;;;8.07;5.22;;;11.10;99.90;;;;;;4973082;28;20117;-83
2022/10/29 03:22:16;;;;;;;7.22;5.47;;;11.10;99.90;;;;;;4973440;28;20089;-83
2022/10/29 03:24:42;;;;;;;9.07;5.88;;;11.10;99.90;;;;;;4988301;28;20627;-83
2022/10/29 03:27:08;;;;;;;9.88;5.65;;;11.10;99.90;;;;;;4966023;28;20580;-83
2022/10/29 03:29:34;;;;;;;8.38;5.45;;;11.10;99.90;;;;;;4985818;28;20563;-82
2022/10/29 03:31:59;;;;;;;8.93;5.25;;;11.10;99.90;;;;;;4991343;28;20109;-83
2022/10/29 03:34:25;;;;;;;11.07;6.07;;;11.00;99.90;;;;;;4975692;28;20042;-82
2022/10/29 03:36:51;;;;;;;7.70;5.43;;;11.00;99.90;;;;;;4953099;28;20035;-82
2022/10/29 03:39:17;;;;;;;10.88;5.57;;;11.00;99.90;;;;;;4997166;28;20745;-83
2022/10/29 03:41:42;;;;;;;9.02;6.45;;;11.00;99.90;;;;;;4983128;28;20038;-83
2022/10/29 03:44:08;;;;;;;10.05;5.40;;;11.00;99.90;;;;;;4988489;28;20949;-83
2022/10/29 03:46:34;;;;;;;5.80;5.18;;;11.00;99.90;;;;;;4977411;28;20026;-83
2022/10/29 03:49:00;;;;;;;7.20;5.20;;;11.00;99.90;;;;;;4971471;28;20038;-83
2022/10/29 03:51:25;;;;;;;5.53;4.70;;;11.00;99.90;;;;;;4990458;28;20096;-83
2022/10/29 03:53:51;;;;;;;10.95;5.43;;;11.00;99.90;;;;;;4971969;28;20030;-84
2022/10/29 03:56:17;;;;;;;8.98;5.55;;;11.00;99.90;;;;;;4972559;28;20034;-83
2022/10/29 03:58:43;;;;;;;7.28;4.82;;;10.80;99.90;;;;;;4988584;28;20065;-85
2022/10/29 04:01:09;;;;;;;6.47;4.93;;;10.80;99.90;;;;;;5004584;28;20034;-83
2022/10/29 04:03:37;;;;;;;7.72;5.43;;;10.80;99.90;;;;;;4985156;28;20085;-83
2022/10/29 04:06:12;;;;;;;7.50;4.72;;;10.70;99.90;;;;;;4972184;28;20042;-84
2022/10/29 04:08:38;;;;;;;7.43;5.30;;;10.80;99.90;;;;;;4989885;28;20483;-84
2022/10/29 04:11:04;;;;;;;7.03;5.38;;;10.70;99.90;;;;;;4971835;28;20038;-83
2022/10/29 04:13:30;;;;;;;12.13;5.78;;;10.80;99.90;;;;;;4959229;28;20656;-83
2022/10/29 04:15:56;;;;;;;8.82;5.68;;;10.70;99.90;;;;;;4974321;28;20030;-83
2022/10/29 04:18:23;;;;;;;8.35;5.25;;;10.70;99.90;;;;;;4988262;28;20027;-83
2022/10/29 04:20:49;;;;;;;7.40;4.50;;;10.70;99.90;;;;;;4987723;28;20026;-83
2022/10/29 04:23:15;;;;;;;7.70;5.63;;;10.70;99.90;;;;;;4991968;28;20404;-83
2022/10/29 04:25:40;;;;;;;7.70;4.75;;;10.70;99.90;;;;;;4975920;28;20112;-82
2022/10/29 04:28:06;;;;;;;11.00;5.28;;;10.60;99.90;;;;;;4992301;28;20097;-83
2022/10/29 04:30:32;;;;;;;6.80;5.53;;;10.60;99.90;;;;;;5008153;28;20041;-83
2022/10/29 04:32:59;;;;;;;8.95;5.50;;;10.60;99.90;;;;;;4975573;28;20034;-84
2022/10/29 04:35:26;;;;;;;5.80;4.50;;;10.60;99.90;;;;;;4976678;28;20427;-83
2022/10/29 04:37:54;;;;;;;7.13;5.05;;;10.60;99.90;;;;;;4992011;28;20030;-83
2022/10/29 04:40:22;;;;;;;7.70;4.65;;;10.60;99.90;;;;;;4977094;28;20487;-84
2022/10/29 04:42:48;;;;;;;6.00;4.22;;;10.50;99.90;;;;;;4985787;28;20081;-82
2022/10/29 04:45:13;;;;;;;9.30;4.90;;;10.50;99.90;;;;;;4975289;28;20030;-84
2022/10/29 04:47:39;;;;;;;6.68;5.10;;;10.50;99.90;;;;;;4992174;28;20042;-83
2022/10/29 04:50:05;;;;;;;7.55;4.60;;;10.50;99.90;;;;;;4993297;28;20034;-83
2022/10/29 04:52:31;;;;;;;14.20;5.97;;;10.40;99.90;;;;;;4975445;28;20040;-83
2022/10/29 04:54:56;;;;;;;8.27;4.90;;;10.40;99.90;;;;;;4991698;28;20562;-83
2022/10/29 04:57:22;;;;;;;5.90;4.78;;;10.40;99.90;;;;;;4991608;28;20088;-83
2022/10/29 04:59:48;;;;;;;7.20;5.20;;;10.40;99.90;;;;;;4958351;28;20125;-83
2022/10/29 05:02:13;;;;;;;7.15;5.38;;;10.40;99.90;;;;;;4991193;28;20057;-82
2022/10/29 05:04:39;;;;;;;9.23;5.60;;;10.40;99.90;;;;;;4977063;28;20496;-83
2022/10/29 05:07:05;;;;;;;8.23;5.70;;;10.40;99.90;;;;;;4958339;28;20042;-83
2022/10/29 05:09:30;;;;;;;8.82;6.22;;;10.40;99.90;;;;;;4999948;28;20156;-82
2022/10/29 05:11:56;;;;;;;9.52;6.07;;;10.40;99.90;;;;;;4959375;28;20035;-83
2022/10/29 05:14:22;;;;;;;8.82;5.53;;;10.40;99.90;;;;;;4953461;28;20074;-82
2022/10/29 05:16:48;;;;;;;7.28;5.88;;;10.30;99.90;;;;;;4950398;28;20038;-84
2022/10/29 05:19:14;;;;;;;10.95;5.95;;;10.30;99.90;;;;;;4974812;28;20045;-84
2022/10/29 05:21:39;;;;;;;10.98;6.70;;;10.30;99.90;;;;;;4947778;28;20037;-82
2022/10/29 05:24:05;;;;;;;6.75;5.53;;;10.30;99.90;;;;;;5002779;28;20125;-83
2022/10/29 05:26:31;;;;;;;10.38;6.72;;;10.20;99.90;;;;;;4969869;28;20034;-83
2022/10/29 05:28:57;;;;;;;9.90;6.97;;;10.20;99.90;;;;;;4944211;28;20026;-83
2022/10/29 05:31:23;;;;;;;9.90;5.57;;;10.30;99.90;;;;;;4992982;28;20034;-84
2022/10/29 05:33:49;;;;;;;8.50;5.90;;;10.30;99.90;;;;;;4974199;28;20038;-83
2022/10/29 05:36:15;;;;;;;10.65;6.78;;;10.40;99.90;;;;;;5001550;28;20414;-82
2022/10/29 05:38:40;;;;;;;11.93;6.82;;;10.40;99.90;;;;;;4994702;28;20034;-83
2022/10/29 05:41:07;;;;;;;10.50;7.15;;;10.30;99.90;;;;;;4996096;28;20034;-84
2022/10/29 05:43:33;;;;;;;12.40;7.53;;;10.40;99.90;;;;;;4973030;28;20035;-84
2022/10/29 05:46:02;;;;;;;10.88;7.05;;;10.40;99.90;;;;;;4972351;28;20031;-83
2022/10/29 05:48:28;;;;;;;12.52;7.50;;;10.40;99.90;;;;;;4970479;28;20171;-82
2022/10/29 05:50:55;;;;;;;12.88;7.85;;;10.40;99.90;;;;;;4965974;28;20030;-84
2022/10/29 05:53:21;;;;;;;13.38;7.88;;;10.40;99.90;;;;;;4965859;28;20038;-82
2022/10/29 05:55:47;;;;;;;9.90;6.55;;;10.50;99.90;;;;;;4977151;28;20133;-82
2022/10/29 05:58:13;;;;;;;10.05;6.25;;;10.50;99.90;;;;;;4987220;28;20091;-82
2022/10/29 06:00:42;;;;;;;10.48;6.57;;;10.50;99.90;;;;;;4976332;28;20033;-82
2022/10/29 06:03:15;;;;;;;10.63;6.50;;;10.50;99.90;;;;;;4969520;28;20085;-82
2022/10/29 06:05:41;;;;;;;10.52;6.50;;;10.60;99.90;;;;;;5010332;28;20057;-82
2022/10/29 06:08:06;;;;;;;10.60;6.53;;;10.50;99.90;;;;;;4998222;28;20038;-83
2022/10/29 06:10:32;;;;;;;15.43;7.53;;;10.60;99.90;;;;;;4992279;28;20467;-82
2022/10/29 06:12:59;;;;;;;11.20;7.13;;;10.50;99.90;;;;;;4974242;28;20056;-83
2022/10/29 06:15:25;;;;;;;15.00;8.80;;;10.50;99.90;;;;;;4992027;28;20763;-82
2022/10/29 06:17:51;;;;;;;10.57;7.65;;;10.50;99.90;;;;;;5021154;28;20030;-82
2022/10/29 06:20:19;;;;;;;12.93;7.53;;;10.50;99.90;;;;;;4995265;28;20569;-82
2022/10/29 06:22:45;;;;;;;13.00;7.85;;;10.50;99.90;;;;;;4989766;28;20038;-83
2022/10/29 06:25:11;;;;;;;14.63;8.27;;;10.50;99.90;;;;;;4954994;28;20094;-82
2022/10/29 06:27:37;;;;;;;13.98;8.15;;;10.50;99.90;;;;;;5007456;28;20027;-82
2022/10/29 06:30:06;;;;;;;10.88;7.43;;;10.60;99.90;;;;;;4985811;28;20030;-82
2022/10/29 06:32:32;;;;;;;11.30;7.90;;;10.60;99.90;;;;;;4973205;28;20038;-83
2022/10/29 06:34:58;;;;;;;11.00;7.10;;;10.70;99.90;;;;;;4991458;28;20038;-83
2022/10/29 06:37:23;;;;;;;15.50;7.88;;;10.70;99.90;;;;;;4988033;28;20046;-82
2022/10/29 06:39:49;;;;;;;12.25;7.43;;;10.80;99.90;;;;;;4998807;28;20113;-82
2022/10/29 06:42:15;;;;;;;13.50;7.25;;;10.80;99.90;;;;;;4988686;28;20054;-82
2022/10/29 06:44:41;;;;;;;11.80;7.93;;;10.80;99.90;;;;;;4987327;28;20027;-82
2022/10/29 06:47:06;;;;;;;12.35;7.05;;;10.80;99.90;;;;;;5009470;28;20376;-81
2022/10/29 06:49:32;;;;;;;12.15;7.60;;;10.80;99.90;;;;;;4973338;28;20033;-82
2022/10/29 06:51:58;;;;;;;13.18;7.78;;;10.90;99.90;;;;;;4962130;28;20026;-82
2022/10/29 06:54:23;;;;;;;10.02;7.47;;;10.90;99.90;;;;;;4974009;28;20038;-81
2022/10/29 06:56:49;;;;;;;9.63;7.55;;;11.00;99.90;;;;;;4984401;28;20125;-82
2022/10/29 06:59:15;;;;;;;10.93;7.78;;;11.20;99.90;;;;;;4960135;28;20046;-83
2022/10/29 07:01:41;;;;;;;12.07;7.15;;;11.30;99.90;;;;;;4984825;28;20034;-83
2022/10/29 07:04:06;;;;;;;12.82;7.10;;;11.40;99.90;;;;;;4972869;28;20467;-82
2022/10/29 07:06:35;;;;;;;14.63;7.68;;;11.50;99.90;;;;;;4987649;28;20043;-82
2022/10/29 07:09:01;;;;;;;13.82;6.28;;;11.70;99.90;;;;;;4993299;28;20511;-82
2022/10/29 07:11:27;;;;;;;10.65;6.40;;;11.80;99.90;;;;;;4993861;28;20089;-83
2022/10/29 07:13:53;;;;;;;10.27;6.70;;;11.90;99.90;;;;;;4988318;28;20129;-83
2022/10/29 07:16:19;;;;;;;12.80;6.68;;;12.10;99.90;;;;;;4979174;28;20034;-82
2022/10/29 07:18:44;;;;;;;7.93;5.88;;;12.30;99.90;;;;;;4969051;28;20034;-83
2022/10/29 07:21:11;;;;;;;10.35;6.68;;;12.30;99.90;;;;;;4964533;28;20069;-82
2022/10/29 07:23:37;;;;;;;16.02;10.07;;;12.30;99.90;;;;;;4970242;28;20093;-82
2022/10/29 07:26:03;;;;;;;14.25;9.70;;;12.40;99.90;;;;;;4994457;28;20026;-82
2022/10/29 07:28:28;;;;;;;9.23;7.10;;;12.60;99.90;;;;;;4992133;28;20037;-83
2022/10/29 07:30:59;;;;;;;11.07;6.30;;;12.70;99.90;;;;;;5004074;28;20034;-83
2022/10/29 07:33:26;;;;;;;9.48;6.28;;;12.80;99.90;;;;;;5007478;28;20062;-82
2022/10/29 07:35:56;;;;;;;7.65;5.68;;;12.90;99.90;;;;;;4978167;28;20030;-83
2022/10/29 07:38:22;;;;;;;9.70;5.85;;;13.00;99.90;;;;;;5006177;28;20039;-83
2022/10/29 07:40:49;;;;;;;11.45;6.00;;;13.10;99.90;;;;;;4976622;28;20035;-81
2022/10/29 07:43:15;;;;;;;11.18;6.10;;;13.20;99.90;;;;;;4989839;28;20022;-82
2022/10/29 07:45:43;;;;;;;7.38;5.82;;;13.20;99.90;;;;;;4967961;28;20092;-83
2022/10/29 07:48:09;;;;;;;10.68;6.00;;;13.30;99.90;;;;;;4972482;28;20038;-81
2022/10/29 07:50:37;;;;;;;9.10;6.20;;;13.20;99.90;;;;;;4975567;28;20121;-82
2022/10/29 07:53:04;;;;;;;11.98;6.35;;;13.30;99.90;;;;;;4958668;28;20037;-82
2022/10/29 07:55:31;;;;;;;9.10;6.05;;;13.40;99.90;;;;;;4988119;28;20054;-81
2022/10/29 07:58:00;;;;;;;7.90;6.15;;;13.50;99.90;;;;;;5004248;28;20514;-81
2022/10/29 08:00:29;;;;;;;9.27;6.50;;;13.40;99.90;;;;;;4987934;28;20026;-83
2022/10/29 08:02:55;;;;;;;12.93;7.07;;;13.50;99.90;;;;;;4988160;28;20034;-83
2022/10/29 08:05:22;;;;;;;10.98;6.75;;;13.50;99.90;;;;;;4972486;28;20714;-82
2022/10/29 08:07:49;;;;;;;9.93;6.60;;;13.60;99.90;;;;;;4988020;28;20030;-82
2022/10/29 08:10:15;;;;;;;12.77;6.82;;;13.60;99.90;;;;;;5004616;28;20120;-82
2022/10/29 08:12:57;;;;;;;12.38;6.38;;;13.70;99.90;;;;;;4948476;28;20039;-82
2022/10/29 08:15:24;;;;;;;14.30;7.18;;;13.70;99.90;;;;;;4987869;28;20089;-82
2022/10/29 08:17:50;;;;;;;9.32;6.05;;;13.70;99.90;;;;;;5004183;28;20450;-81
2022/10/29 08:20:17;;;;;;;11.52;6.20;;;13.70;99.90;;;;;;4971855;28;20496;-82
2022/10/29 08:22:42;;;;;;;13.20;6.60;;;13.80;99.90;;;;;;5003340;28;20101;-83
2022/10/29 08:25:09;;;;;;;13.88;6.82;;;13.90;99.90;;;;;;4981063;28;20027;-83
2022/10/29 08:27:35;;;;;;;7.40;5.70;;;13.80;99.90;;;;;;4996056;28;20062;-83
2022/10/29 08:30:01;;;;;;;13.23;6.60;;;13.80;99.90;;;;;;4987999;28;20486;-82
2022/10/29 08:32:26;;;;;;;7.45;5.70;;;13.90;99.90;;;;;;4965951;28;20050;-82
2022/10/29 08:34:52;;;;;;;8.75;5.90;;;14.00;99.90;;;;;;4984681;28;20088;-82
2022/10/29 08:37:18;;;;;;;10.45;5.90;;;14.10;99.90;;;;;;4971464;28;20038;-81
2022/10/29 08:39:44;;;;;;;9.85;6.28;;;14.10;99.90;;;;;;4985609;28;20038;-82
2022/10/29 08:42:35;;;;;;;13.38;6.20;;;14.10;99.90;;;;;;4967799;28;20049;-82
2022/10/29 08:45:21;;;;;;;10.80;6.30;;;14.20;99.90;;;;;;4987296;28;20360;-83
2022/10/29 08:48:19;;;;;;;12.75;6.38;;;14.20;99.90;;;;;;4985999;28;20026;-82
2022/10/29 08:51:19;;;;;;;12.85;6.65;;;14.20;99.90;;;;;;4994746;28;20041;-82
2022/10/29 08:53:50;;;;;;;8.73;5.88;;;14.20;99.90;;;;;;5004125;28;20038;-82
2022/10/29 08:56:46;;;;;;;10.52;5.65;;;14.30;99.90;;;;;;5004322;28;20104;-83
2022/10/29 08:59:23;;;;;;;8.20;5.70;;;14.40;99.90;;;;;;4985134;28;20050;-82
2022/10/29 09:01:49;;;;;;;9.23;5.45;;;14.50;99.90;;;;;;4999364;28;20030;-83
2022/10/29 09:04:23;;;;;;;8.98;6.18;;;14.60;99.90;;;;;;4970822;28;20455;-83
2022/10/29 09:07:09;;;;;;;10.07;5.43;;;14.60;99.90;;;;;;4979058;28;20030;-82
2022/10/29 09:09:44;;;;;;;9.35;5.63;;;14.60;99.90;;;;;;4991680;28;20034;-83
2022/10/29 09:12:38;;;;;;;7.35;4.78;;;14.60;99.90;;;;;;4988098;28;20035;-83
2022/10/29 09:15:24;;;;;;;6.72;5.30;;;14.60;99.90;;;;;;4973579;28;20476;-83
2022/10/29 09:18:16;;;;;;;10.13;5.93;;;14.60;99.90;;;;;;4995817;28;20482;-84
2022/10/29 09:20:54;;;;;;;9.82;5.95;;;14.60;99.90;;;;;;4991840;28;20121;-84
2022/10/29 09:23:38;;;;;;;7.13;5.45;;;14.70;99.90;;;;;;4990306;28;20030;-84
2022/10/29 09:26:10;;;;;;;9.68;5.40;;;14.60;99.90;;;;;;5008132;28;20523;-84
2022/10/29 09:28:57;;;;;;;7.75;5.43;;;14.60;99.90;;;;;;4971323;28;20447;-84
2022/10/29 09:31:44;;;;;;;7.75;5.30;;;14.50;99.90;;;;;;4966499;28;20043;-83
2022/10/29 09:34:17;;;;;;;11.40;5.63;;;14.50;99.90;;;;;;4988240;28;20031;-83
2022/10/29 09:36:45;;;;;;;8.30;5.15;;;14.60;99.90;;;;;;4983785;28;20030;-83
2022/10/29 09:39:15;;;;;;;8.20;5.47;;;14.60;99.90;;;;;;4974704;28;20034;-83
2022/10/29 09:41:43;;;;;;;8.45;5.60;;;14.60;99.90;;;;;;5002639;28;20062;-82
2022/10/29 09:44:23;;;;;;;9.23;5.80;;;14.60;99.90;;;;;;4990443;28;20029;-83
2022/10/29 09:46:48;;;;;;;8.48;5.65;;;14.60;99.90;;;;;;4996998;28;20038;-83
2022/10/29 09:49:21;;;;;;;8.23;5.35;;;14.70;99.90;;;;;;4975467;28;20148;-83
2022/10/29 09:52:18;;;;;;;11.52;5.68;;;14.70;99.90;;;;;;5000028;28;20676;-83
2022/10/29 09:54:44;;;;;;;6.47;5.28;;;14.80;99.90;;;;;;4982348;28;20034;-83
2022/10/29 09:57:33;;;;;;;11.57;5.82;;;14.80;99.90;;;;;;4985290;28;20030;-83
2022/10/29 10:00:06;;;;;;;8.52;6.05;;;15.00;99.90;;;;;;4984769;28;20085;-81
2022/10/29 10:02:43;;;;;;;10.60;5.50;;;15.10;99.90;;;;;;4984623;28;20050;-82
2022/10/29 10:05:12;;;;;;;7.60;4.45;;;15.10;99.90;;;;;;4982754;28;20407;-83
2022/10/29 10:07:38;;;;;;;11.95;5.38;;;15.20;99.90;;;;;;4992327;28;20105;-83
2022/10/29 10:10:26;;;;;;;8.82;5.80;;;15.30;99.90;;;;;;5009926;28;20029;-83
2022/10/29 10:12:52;;;;;;;9.82;5.15;;;15.30;99.90;;;;;;4983965;28;20030;-82
2022/10/29 10:15:24;;;;;;;10.05;5.95;;;15.30;99.90;;;;;;4973684;28;20133;-81
2022/10/29 10:18:00;;;;;;;6.68;4.93;;;15.30;99.90;;;;;;4969193;28;20041;-82
2022/10/29 10:20:33;;;;;;;10.38;5.07;;;15.40;99.90;;;;;;4984796;28;20063;-82
2022/10/29 10:22:59;;;;;;;7.35;4.82;;;15.40;99.90;;;;;;4985634;28;20033;-83
2022/10/29 10:25:35;;;;;;;8.68;4.90;;;15.40;99.90;;;;;;4970302;28;20050;-81
2022/10/29 10:28:18;;;;;;;12.82;6.45;;;15.50;99.90;;;;;;4964986;28;20046;-82
2022/10/29 10:31:10;;;;;;;10.73;6.10;;;15.60;99.90;;;;;;4988343;28;20030;-82
2022/10/29 10:33:48;;;;;;;7.05;5.38;;;15.50;99.90;;;;;;4963158;28;20653;-83
2022/10/29 10:36:15;;;;;;;7.85;5.57;;;15.40;99.90;;;;;;5005877;28;20029;-83
2022/10/29 10:38:48;;;;;;;9.00;5.97;;;15.50;99.90;;;;;;4975240;28;20084;-83
2022/10/29 10:41:20;;;;;;;7.47;5.47;;;15.50;99.90;;;;;;4989226;28;20042;-82
2022/10/29 10:43:46;;;;;;;8.35;5.60;;;15.60;99.90;;;;;;5008221;28;20045;-83
2022/10/29 10:46:22;;;;;;;13.25;5.55;;;15.70;99.90;;;;;;4975086;28;20038;-83
2022/10/29 10:49:05;;;;;;;10.93;5.82;;;15.80;99.90;;;;;;5004712;28;20027;-83
2022/10/29 10:51:35;;;;;;;10.65;5.95;;;15.80;99.90;;;;;;4993696;28;20077;-83
2022/10/29 10:54:19;;;;;;;8.20;4.97;;;15.90;99.90;;;;;;4983972;28;20128;-85
2022/10/29 10:56:57;;;;;;;9.32;5.50;;;16.00;99.90;;;;;;4989481;28;20026;-83
2022/10/29 10:59:28;;;;;;;8.88;4.97;;;16.00;99.90;;;;;;4984695;28;20719;-84
2022/10/29 11:01:59;;;;;;;8.35;5.63;;;16.10;99.90;;;;;;4997368;28;20039;-85
2022/10/29 11:04:33;;;;;;;7.57;5.60;;;16.10;99.90;;;;;;5000823;28;20641;-83
2022/10/29 11:07:04;;;;;;;8.48;5.22;;;16.20;99.90;;;;;;4983175;28;20088;-84
2022/10/29 11:09:36;;;;;;;10.30;4.80;;;16.20;99.90;;;;;;5003211;28;20129;-83
2022/10/29 11:12:02;;;;;;;9.73;5.30;;;16.30;99.90;;;;;;4986118;28;20027;-84
2022/10/29 11:14:35;;;;;;;8.48;5.10;;;16.30;99.90;;;;;;4985883;28;20053;-84
2022/10/29 11:17:05;;;;;;;8.90;5.55;;;16.40;99.90;;;;;;4996325;28;20418;-83
2022/10/29 11:19:46;;;;;;;8.02;5.25;;;16.40;99.90;;;;;;4972259;28;20038;-84
2022/10/29 11:22:17;;;;;;;9.00;5.38;;;16.50;99.90;;;;;;4971752;28;20030;-85
2022/10/29 11:25:00;;;;;;;10.07;5.72;;;16.50;99.90;;;;;;5004589;28;20034;-83
2022/10/29 11:27:35;;;;;;;8.75;5.00;;;16.50;99.90;;;;;;4991930;28;20534;-83
2022/10/29 11:30:13;;;;;;;10.05;5.20;;;16.60;99.90;;;;;;4997079;28;20030;-84
2022/10/29 11:33:01;;;;;;;8.48;5.07;;;16.70;99.90;;;;;;4987849;28;20034;-83
2022/10/29 11:35:30;;;;;;;9.48;5.07;;;16.70;99.90;;;;;;4973882;28;20487;-84
2022/10/29 11:38:11;;;;;;;11.40;5.20;;;16.80;99.90;;;;;;5009121;28;20160;-83
2022/10/29 11:41:03;;;;;;;7.70;5.10;;;16.80;99.90;;;;;;4992688;28;20046;-85
2022/10/29 11:43:30;;;;;;;10.50;5.30;;;16.90;99.90;;;;;;4987021;28;20380;-83
2022/10/29 11:46:45;;;;;;;6.50;4.65;;;16.90;99.90;;;;;;4977782;28;20418;-83
2022/10/29 11:49:46;;;;;;;8.10;4.90;;;17.00;99.90;;;;;;5023735;28;20033;-83
2022/10/29 11:52:12;;;;;;;12.23;5.30;;;17.00;99.90;;;;;;5007881;28;20038;-83
2022/10/29 11:54:50;;;;;;;8.52;4.38;;;17.10;99.90;;;;;;4991937;28;20117;-82
2022/10/29 11:57:43;;;;;;;11.93;5.15;;;17.10;99.90;;;;;;5006419;28;20038;-82
2022/10/29 12:00:17;;;;;;;5.88;4.43;;;17.20;99.90;;;;;;5006200;28;20642;-82
2022/10/29 12:03:19;;;;;;;13.43;5.20;;;17.20;99.90;;;;;;5022702;28;20041;-82
2022/10/29 12:05:47;;;;;;;9.75;4.90;;;17.20;99.90;;;;;;4994376;28;20088;-83
2022/10/29 12:08:49;;;;;;;10.13;5.65;;;17.30;99.90;;;;;;4987613;28;20080;-82
2022/10/29 12:11:26;;;;;;;8.95;5.10;;;17.30;99.90;;;;;;4996303;28;20384;-83
2022/10/29 12:14:09;;;;;;;7.50;5.00;;;17.30;99.90;;;;;;5010243;28;20113;-82
2022/10/29 12:17:02;;;;;;;13.30;5.00;;;17.30;99.90;;;;;;4968624;28;20728;-82
2022/10/29 12:19:35;;;;;;;8.98;5.43;;;17.30;99.90;;;;;;4976409;28;20034;-81
2022/10/29 12:22:32;;;;;;;6.40;4.90;;;17.30;99.90;;;;;;4978700;28;20057;-81
2022/10/29 12:25:39;;;;;;;8.60;4.85;;;17.40;99.90;;;;;;4986087;28;20022;-83
2022/10/29 12:28:41;;;;;;;8.43;4.82;;;17.30;99.90;;;;;;4987317;28;20045;-81
2022/10/29 12:31:25;;;;;;;6.55;4.68;;;17.50;99.90;;;;;;4984225;28;20034;-82
2022/10/29 12:33:55;;;;;;;8.23;5.45;;;17.50;99.90;;;;;;4983953;28;20027;-83
2022/10/29 12:36:36;;;;;;;10.82;5.45;;;17.50;99.90;;;;;;4995007;28;20041;-82
2022/10/29 12:39:05;;;;;;;9.13;5.15;;;17.60;99.90;;;;;;4957264;28;20097;-82
2022/10/29 12:41:39;;;;;;;24.13;14.02;;;17.70;99.90;;;;;;4983731;28;20034;-82
2022/10/29 12:44:11;;;;;;;22.95;16.15;;;17.80;99.90;;;;;;4997687;28;20022;-81
2022/10/29 12:46:47;;;;;;;8.23;5.22;;;17.80;99.90;;;;;;5004819;28;20034;-81
2022/10/29 12:49:40;;;;;;;7.13;5.07;;;17.90;99.90;;;;;;5004559;28;20076;-82
2022/10/29 12:52:27;;;;;;;9.10;4.60;;;18.00;99.90;;;;;;4983536;28;20121;-82
2022/10/29 12:54:54;;;;;;;8.25;4.75;;;18.00;99.90;;;;;;4989101;28;20042;-82
2022/10/29 12:57:28;;;;;;;10.32;5.07;;;18.10;99.90;;;;;;4995781;28;20030;-82
2022/10/29 12:59:54;;;;;;;5.72;4.60;;;18.10;99.90;;;;;;4986891;28;20105;-82
2022/10/29 13:02:35;;;;;;;8.23;5.13;;;18.20;99.90;;;;;;4971586;28;20476;-82
2022/10/29 13:05:09;;;;;;;10.60;5.07;;;18.20;99.90;;;;;;4971238;28;20391;-82